sensor_id;sensor_type;location;lat;lon;timestamp;P1;durP1;ratioP1;P2;durP2;ratioP2
49972;SDS011;65693;49.798;10.968;2022-12-17T00:01:15;16.10;;;11.63;;
49972;SDS011;65693;49.798;10.968;2022-12-17T00:04:00;20.67;;;11.82;;
49972;SDS011;65693;49.798;10.968;2022-12-17T00:06:45;18.73;;;11.65;;
49972;SDS011;65693;49.798;10.968;2022-12-17T00:09:30;20.27;;;12.10;;
49972;SDS011;65693;49.798;10.968;2022-12-17T00:12:14;18.55;;;12.07;;
49972;SDS011;65693;49.798;10.968;2022-12-17T00:14:58;18.65;;;11.75;;
49972;SDS011;65693;49.798;10.968;2022-12-17T00:17:42;18.98;;;11.77;;
49972;SDS011;65693;49.798;10.968;2022-12-17T00:20:26;18.08;;;11.48;;
49972;SDS011;65693;49.798;10.968;2022-12-17T00:23:11;17.65;;;11.80;;
49972;SDS011;65693;49.798;10.968;2022-12-17T00:25:56;18.60;;;11.70;;
49972;SDS011;65693;49.798;10.968;2022-12-17T00:28:40;19.08;;;12.50;;
49972;SDS011;65693;49.798;10.968;2022-12-17T00:31:25;17.60;;;11.70;;
49972;SDS011;65693;49.798;10.968;2022-12-17T00:34:10;16.70;;;11.73;;
49972;SDS011;65693;49.798;10.968;2022-12-17T00:36:55;19.83;;;11.48;;
49972;SDS011;65693;49.798;10.968;2022-12-17T00:39:39;18.50;;;11.70;;
49972;SDS011;65693;49.798;10.968;2022-12-17T00:42:25;19.85;;;12.25;;
49972;SDS011;65693;49.798;10.968;2022-12-17T00:45:09;17.27;;;11.20;;
49972;SDS011;65693;49.798;10.968;2022-12-17T00:47:53;19.15;;;11.77;;
49972;SDS011;65693;49.798;10.968;2022-12-17T00:50:37;19.60;;;11.93;;
49972;SDS011;65693;49.798;10.968;2022-12-17T00:53:33;18.27;;;11.93;;
49972;SDS011;65693;49.798;10.968;2022-12-17T00:56:17;20.33;;;13.32;;
49972;SDS011;65693;49.798;10.968;2022-12-17T00:59:02;18.60;;;10.80;;
49972;SDS011;65693;49.798;10.968;2022-12-17T01:01:46;18.38;;;10.75;;
49972;SDS011;65693;49.798;10.968;2022-12-17T01:04:30;17.65;;;10.85;;
49972;SDS011;65693;49.798;10.968;2022-12-17T01:07:14;18.20;;;11.57;;
49972;SDS011;65693;49.798;10.968;2022-12-17T01:09:59;19.00;;;11.45;;
49972;SDS011;65693;49.798;10.968;2022-12-17T01:12:43;17.65;;;11.63;;
49972;SDS011;65693;49.798;10.968;2022-12-17T01:15:28;18.23;;;11.48;;
49972;SDS011;65693;49.798;10.968;2022-12-17T01:18:15;17.45;;;10.95;;
49972;SDS011;65693;49.798;10.968;2022-12-17T01:21:00;18.67;;;11.63;;
49972;SDS011;65693;49.798;10.968;2022-12-17T01:23:44;19.65;;;11.60;;
49972;SDS011;65693;49.798;10.968;2022-12-17T01:26:40;16.90;;;10.77;;
49972;SDS011;65693;49.798;10.968;2022-12-17T01:29:24;20.08;;;12.13;;
49972;SDS011;65693;49.798;10.968;2022-12-17T01:32:09;18.73;;;11.77;;
49972;SDS011;65693;49.798;10.968;2022-12-17T01:34:53;18.00;;;11.93;;
49972;SDS011;65693;49.798;10.968;2022-12-17T01:37:37;17.13;;;10.82;;
49972;SDS011;65693;49.798;10.968;2022-12-17T01:40:21;17.75;;;11.27;;
49972;SDS011;65693;49.798;10.968;2022-12-17T01:43:28;16.60;;;10.73;;
49972;SDS011;65693;49.798;10.968;2022-12-17T01:46:14;19.10;;;11.80;;
49972;SDS011;65693;49.798;10.968;2022-12-17T01:48:59;18.95;;;10.93;;
49972;SDS011;65693;49.798;10.968;2022-12-17T01:51:43;16.25;;;10.68;;
49972;SDS011;65693;49.798;10.968;2022-12-17T01:54:27;19.98;;;11.55;;
49972;SDS011;65693;49.798;10.968;2022-12-17T01:57:11;17.98;;;11.38;;
49972;SDS011;65693;49.798;10.968;2022-12-17T01:59:57;17.75;;;11.27;;
49972;SDS011;65693;49.798;10.968;2022-12-17T02:02:44;17.80;;;11.07;;
49972;SDS011;65693;49.798;10.968;2022-12-17T02:05:30;18.20;;;11.23;;
49972;SDS011;65693;49.798;10.968;2022-12-17T02:08:20;20.20;;;11.95;;
49972;SDS011;65693;49.798;10.968;2022-12-17T02:11:16;17.83;;;11.13;;
49972;SDS011;65693;49.798;10.968;2022-12-17T02:14:09;17.38;;;10.82;;
49972;SDS011;65693;49.798;10.968;2022-12-17T02:16:59;19.90;;;11.60;;
49972;SDS011;65693;49.798;10.968;2022-12-17T02:19:53;19.23;;;11.70;;
49972;SDS011;65693;49.798;10.968;2022-12-17T02:22:48;19.73;;;11.88;;
49972;SDS011;65693;49.798;10.968;2022-12-17T02:25:41;17.33;;;10.95;;
49972;SDS011;65693;49.798;10.968;2022-12-17T02:28:32;17.17;;;10.82;;
49972;SDS011;65693;49.798;10.968;2022-12-17T02:31:18;16.48;;;10.90;;
49972;SDS011;65693;49.798;10.968;2022-12-17T02:34:03;18.48;;;10.82;;
49972;SDS011;65693;49.798;10.968;2022-12-17T02:36:47;18.02;;;10.35;;
49972;SDS011;65693;49.798;10.968;2022-12-17T02:39:31;17.45;;;10.90;;
49972;SDS011;65693;49.798;10.968;2022-12-17T02:42:15;16.58;;;10.38;;
49972;SDS011;65693;49.798;10.968;2022-12-17T02:45:02;18.05;;;10.95;;
49972;SDS011;65693;49.798;10.968;2022-12-17T02:47:47;16.65;;;10.60;;
49972;SDS011;65693;49.798;10.968;2022-12-17T02:50:33;18.50;;;11.15;;
49972;SDS011;65693;49.798;10.968;2022-12-17T02:53:18;18.77;;;11.13;;
49972;SDS011;65693;49.798;10.968;2022-12-17T02:56:02;17.85;;;10.88;;
49972;SDS011;65693;49.798;10.968;2022-12-17T02:58:46;15.52;;;10.43;;
49972;SDS011;65693;49.798;10.968;2022-12-17T03:01:32;17.33;;;10.82;;
49972;SDS011;65693;49.798;10.968;2022-12-17T03:04:16;19.75;;;11.55;;
49972;SDS011;65693;49.798;10.968;2022-12-17T03:07:00;16.83;;;10.50;;
49972;SDS011;65693;49.798;10.968;2022-12-17T03:09:44;17.38;;;10.68;;
49972;SDS011;65693;49.798;10.968;2022-12-17T03:12:28;17.95;;;11.15;;
49972;SDS011;65693;49.798;10.968;2022-12-17T03:15:13;18.73;;;10.98;;
49972;SDS011;65693;49.798;10.968;2022-12-17T03:17:58;17.92;;;10.82;;
49972;SDS011;65693;49.798;10.968;2022-12-17T03:20:42;18.60;;;11.10;;
49972;SDS011;65693;49.798;10.968;2022-12-17T03:23:26;16.77;;;10.15;;
49972;SDS011;65693;49.798;10.968;2022-12-17T03:26:11;18.45;;;11.48;;
49972;SDS011;65693;49.798;10.968;2022-12-17T03:28:55;17.95;;;10.52;;
49972;SDS011;65693;49.798;10.968;2022-12-17T03:31:39;19.10;;;10.82;;
49972;SDS011;65693;49.798;10.968;2022-12-17T03:34:24;17.30;;;10.90;;
49972;SDS011;65693;49.798;10.968;2022-12-17T03:37:08;16.77;;;9.88;;
49972;SDS011;65693;49.798;10.968;2022-12-17T03:39:52;17.65;;;10.70;;
49972;SDS011;65693;49.798;10.968;2022-12-17T03:42:37;14.80;;;9.73;;
49972;SDS011;65693;49.798;10.968;2022-12-17T03:45:21;17.13;;;10.27;;
49972;SDS011;65693;49.798;10.968;2022-12-17T03:48:05;17.70;;;10.65;;
49972;SDS011;65693;49.798;10.968;2022-12-17T03:50:52;16.73;;;10.05;;
49972;SDS011;65693;49.798;10.968;2022-12-17T03:53:37;16.85;;;9.65;;
49972;SDS011;65693;49.798;10.968;2022-12-17T03:56:21;17.27;;;10.40;;
49972;SDS011;65693;49.798;10.968;2022-12-17T03:59:06;16.88;;;10.57;;
49972;SDS011;65693;49.798;10.968;2022-12-17T04:01:50;15.20;;;9.57;;
49972;SDS011;65693;49.798;10.968;2022-12-17T04:04:34;18.73;;;10.73;;
49972;SDS011;65693;49.798;10.968;2022-12-17T04:07:20;16.58;;;10.27;;
49972;SDS011;65693;49.798;10.968;2022-12-17T04:10:04;17.85;;;10.73;;
49972;SDS011;65693;49.798;10.968;2022-12-17T04:12:48;18.75;;;10.57;;
49972;SDS011;65693;49.798;10.968;2022-12-17T04:15:33;15.85;;;10.07;;
49972;SDS011;65693;49.798;10.968;2022-12-17T04:18:17;15.85;;;9.80;;
49972;SDS011;65693;49.798;10.968;2022-12-17T04:21:01;17.77;;;10.88;;
49972;SDS011;65693;49.798;10.968;2022-12-17T04:23:46;16.92;;;10.95;;
49972;SDS011;65693;49.798;10.968;2022-12-17T04:26:30;16.65;;;10.35;;
49972;SDS011;65693;49.798;10.968;2022-12-17T04:29:14;17.50;;;10.13;;
49972;SDS011;65693;49.798;10.968;2022-12-17T04:31:58;15.00;;;9.57;;
49972;SDS011;65693;49.798;10.968;2022-12-17T04:34:42;17.40;;;10.60;;
49972;SDS011;65693;49.798;10.968;2022-12-17T04:37:26;15.48;;;9.43;;
49972;SDS011;65693;49.798;10.968;2022-12-17T04:40:12;17.70;;;10.18;;
49972;SDS011;65693;49.798;10.968;2022-12-17T04:42:56;18.63;;;10.55;;
49972;SDS011;65693;49.798;10.968;2022-12-17T04:45:48;19.25;;;9.85;;
49972;SDS011;65693;49.798;10.968;2022-12-17T04:48:40;15.30;;;9.70;;
49972;SDS011;65693;49.798;10.968;2022-12-17T04:51:25;18.65;;;10.95;;
49972;SDS011;65693;49.798;10.968;2022-12-17T04:54:10;16.67;;;9.65;;
49972;SDS011;65693;49.798;10.968;2022-12-17T04:56:55;17.92;;;10.10;;
49972;SDS011;65693;49.798;10.968;2022-12-17T04:59:39;15.52;;;9.95;;
49972;SDS011;65693;49.798;10.968;2022-12-17T05:02:24;18.45;;;10.38;;
49972;SDS011;65693;49.798;10.968;2022-12-17T05:05:08;16.80;;;10.38;;
49972;SDS011;65693;49.798;10.968;2022-12-17T05:07:52;16.30;;;9.85;;
49972;SDS011;65693;49.798;10.968;2022-12-17T05:10:37;17.77;;;10.13;;
49972;SDS011;65693;49.798;10.968;2022-12-17T05:13:22;17.42;;;9.98;;
49972;SDS011;65693;49.798;10.968;2022-12-17T05:16:07;16.30;;;10.15;;
49972;SDS011;65693;49.798;10.968;2022-12-17T05:18:51;19.48;;;9.95;;
49972;SDS011;65693;49.798;10.968;2022-12-17T05:21:35;17.88;;;10.32;;
49972;SDS011;65693;49.798;10.968;2022-12-17T05:24:19;18.92;;;10.13;;
49972;SDS011;65693;49.798;10.968;2022-12-17T05:27:03;16.45;;;9.93;;
49972;SDS011;65693;49.798;10.968;2022-12-17T05:29:49;17.13;;;10.43;;
49972;SDS011;65693;49.798;10.968;2022-12-17T05:32:35;17.27;;;9.98;;
49972;SDS011;65693;49.798;10.968;2022-12-17T05:35:19;16.48;;;10.10;;
49972;SDS011;65693;49.798;10.968;2022-12-17T05:38:03;15.23;;;9.75;;
49972;SDS011;65693;49.798;10.968;2022-12-17T05:40:47;15.95;;;9.98;;
49972;SDS011;65693;49.798;10.968;2022-12-17T05:43:32;15.35;;;9.50;;
49972;SDS011;65693;49.798;10.968;2022-12-17T05:46:17;17.65;;;9.63;;
49972;SDS011;65693;49.798;10.968;2022-12-17T05:49:01;16.88;;;9.80;;
49972;SDS011;65693;49.798;10.968;2022-12-17T05:51:45;15.07;;;8.68;;
49972;SDS011;65693;49.798;10.968;2022-12-17T05:54:29;18.23;;;10.55;;
49972;SDS011;65693;49.798;10.968;2022-12-17T05:57:25;17.13;;;9.85;;
49972;SDS011;65693;49.798;10.968;2022-12-17T06:00:10;17.60;;;9.57;;
49972;SDS011;65693;49.798;10.968;2022-12-17T06:03:04;18.20;;;9.13;;
49972;SDS011;65693;49.798;10.968;2022-12-17T06:05:52;16.88;;;9.27;;
49972;SDS011;65693;49.798;10.968;2022-12-17T06:08:36;14.73;;;9.07;;
49972;SDS011;65693;49.798;10.968;2022-12-17T06:11:20;14.82;;;8.60;;
49972;SDS011;65693;49.798;10.968;2022-12-17T06:14:04;16.27;;;9.52;;
49972;SDS011;65693;49.798;10.968;2022-12-17T06:16:49;17.95;;;10.05;;
49972;SDS011;65693;49.798;10.968;2022-12-17T06:19:34;14.68;;;9.27;;
49972;SDS011;65693;49.798;10.968;2022-12-17T06:22:18;15.00;;;9.90;;
49972;SDS011;65693;49.798;10.968;2022-12-17T06:25:02;15.07;;;8.68;;
49972;SDS011;65693;49.798;10.968;2022-12-17T06:27:47;17.52;;;9.40;;
49972;SDS011;65693;49.798;10.968;2022-12-17T06:30:31;15.23;;;9.05;;
49972;SDS011;65693;49.798;10.968;2022-12-17T06:33:15;15.10;;;8.80;;
49972;SDS011;65693;49.798;10.968;2022-12-17T06:36:00;17.90;;;9.32;;
49972;SDS011;65693;49.798;10.968;2022-12-17T06:38:45;18.50;;;9.50;;
49972;SDS011;65693;49.798;10.968;2022-12-17T06:41:29;18.45;;;9.93;;
49972;SDS011;65693;49.798;10.968;2022-12-17T06:44:13;13.52;;;8.73;;
49972;SDS011;65693;49.798;10.968;2022-12-17T06:46:57;15.80;;;9.35;;
49972;SDS011;65693;49.798;10.968;2022-12-17T06:49:41;14.50;;;9.10;;
49972;SDS011;65693;49.798;10.968;2022-12-17T06:52:27;15.85;;;9.25;;
49972;SDS011;65693;49.798;10.968;2022-12-17T06:55:12;16.17;;;9.63;;
49972;SDS011;65693;49.798;10.968;2022-12-17T06:57:56;16.25;;;9.88;;
49972;SDS011;65693;49.798;10.968;2022-12-17T07:00:40;15.32;;;9.18;;
49972;SDS011;65693;49.798;10.968;2022-12-17T07:03:24;16.98;;;9.57;;
49972;SDS011;65693;49.798;10.968;2022-12-17T07:06:08;15.73;;;8.93;;
49972;SDS011;65693;49.798;10.968;2022-12-17T07:08:54;15.75;;;9.02;;
49972;SDS011;65693;49.798;10.968;2022-12-17T07:11:38;15.25;;;8.40;;
49972;SDS011;65693;49.798;10.968;2022-12-17T07:14:23;15.90;;;10.48;;
49972;SDS011;65693;49.798;10.968;2022-12-17T07:17:07;15.27;;;9.40;;
49972;SDS011;65693;49.798;10.968;2022-12-17T07:19:51;18.15;;;9.68;;
49972;SDS011;65693;49.798;10.968;2022-12-17T07:22:35;15.32;;;9.00;;
49972;SDS011;65693;49.798;10.968;2022-12-17T07:25:20;15.68;;;9.45;;
49972;SDS011;65693;49.798;10.968;2022-12-17T07:28:04;15.52;;;8.85;;
49972;SDS011;65693;49.798;10.968;2022-12-17T07:30:49;14.40;;;8.85;;
49972;SDS011;65693;49.798;10.968;2022-12-17T07:33:38;17.92;;;9.45;;
49972;SDS011;65693;49.798;10.968;2022-12-17T07:36:22;15.68;;;9.75;;
49972;SDS011;65693;49.798;10.968;2022-12-17T07:39:06;17.52;;;9.98;;
49972;SDS011;65693;49.798;10.968;2022-12-17T07:41:52;16.15;;;8.98;;
49972;SDS011;65693;49.798;10.968;2022-12-17T07:44:36;16.27;;;9.32;;
49972;SDS011;65693;49.798;10.968;2022-12-17T07:47:20;14.80;;;8.88;;
49972;SDS011;65693;49.798;10.968;2022-12-17T07:50:05;15.65;;;9.35;;
49972;SDS011;65693;49.798;10.968;2022-12-17T07:52:56;15.05;;;9.63;;
49972;SDS011;65693;49.798;10.968;2022-12-17T07:55:41;14.18;;;8.15;;
49972;SDS011;65693;49.798;10.968;2022-12-17T07:58:27;17.13;;;9.43;;
49972;SDS011;65693;49.798;10.968;2022-12-17T08:01:11;17.42;;;10.15;;
49972;SDS011;65693;49.798;10.968;2022-12-17T08:03:55;15.70;;;9.00;;
49972;SDS011;65693;49.798;10.968;2022-12-17T08:06:42;15.82;;;10.27;;
49972;SDS011;65693;49.798;10.968;2022-12-17T08:09:26;15.55;;;9.18;;
49972;SDS011;65693;49.798;10.968;2022-12-17T08:12:10;16.67;;;8.95;;
49972;SDS011;65693;49.798;10.968;2022-12-17T08:14:55;21.33;;;13.10;;
49972;SDS011;65693;49.798;10.968;2022-12-17T08:17:39;20.75;;;11.75;;
49972;SDS011;65693;49.798;10.968;2022-12-17T08:20:23;20.10;;;10.98;;
49972;SDS011;65693;49.798;10.968;2022-12-17T08:23:08;23.88;;;13.48;;
49972;SDS011;65693;49.798;10.968;2022-12-17T08:25:52;21.27;;;12.27;;
49972;SDS011;65693;49.798;10.968;2022-12-17T08:28:36;19.10;;;12.35;;
49972;SDS011;65693;49.798;10.968;2022-12-17T08:31:22;20.98;;;11.02;;
49972;SDS011;65693;49.798;10.968;2022-12-17T08:34:07;18.55;;;11.52;;
49972;SDS011;65693;49.798;10.968;2022-12-17T08:36:51;21.80;;;12.05;;
49972;SDS011;65693;49.798;10.968;2022-12-17T08:39:35;19.05;;;11.38;;
49972;SDS011;65693;49.798;10.968;2022-12-17T08:42:19;17.25;;;10.77;;
49972;SDS011;65693;49.798;10.968;2022-12-17T08:45:04;19.77;;;10.75;;
49972;SDS011;65693;49.798;10.968;2022-12-17T08:47:50;20.05;;;11.40;;
49972;SDS011;65693;49.798;10.968;2022-12-17T08:50:34;19.77;;;12.30;;
49972;SDS011;65693;49.798;10.968;2022-12-17T08:53:18;19.42;;;11.55;;
49972;SDS011;65693;49.798;10.968;2022-12-17T08:56:03;20.10;;;11.77;;
49972;SDS011;65693;49.798;10.968;2022-12-17T08:58:47;18.65;;;11.35;;
49972;SDS011;65693;49.798;10.968;2022-12-17T09:01:31;21.80;;;12.85;;
49972;SDS011;65693;49.798;10.968;2022-12-17T09:04:17;18.95;;;11.48;;
49972;SDS011;65693;49.798;10.968;2022-12-17T09:07:01;18.33;;;11.80;;
49972;SDS011;65693;49.798;10.968;2022-12-17T09:09:45;19.08;;;12.05;;
49972;SDS011;65693;49.798;10.968;2022-12-17T09:12:29;18.63;;;11.25;;
49972;SDS011;65693;49.798;10.968;2022-12-17T09:15:12;20.20;;;12.18;;
49972;SDS011;65693;49.798;10.968;2022-12-17T09:17:56;22.00;;;12.05;;
49972;SDS011;65693;49.798;10.968;2022-12-17T09:20:42;19.20;;;12.68;;
49972;SDS011;65693;49.798;10.968;2022-12-17T09:23:26;21.85;;;12.25;;
49972;SDS011;65693;49.798;10.968;2022-12-17T09:26:10;19.10;;;11.75;;
49972;SDS011;65693;49.798;10.968;2022-12-17T09:28:54;19.17;;;12.13;;
49972;SDS011;65693;49.798;10.968;2022-12-17T09:31:39;18.38;;;12.15;;
49972;SDS011;65693;49.798;10.968;2022-12-17T09:34:23;17.73;;;11.13;;
49972;SDS011;65693;49.798;10.968;2022-12-17T09:37:08;18.75;;;11.80;;
49972;SDS011;65693;49.798;10.968;2022-12-17T09:39:52;17.92;;;11.07;;
49972;SDS011;65693;49.798;10.968;2022-12-17T09:42:40;17.67;;;11.73;;
49972;SDS011;65693;49.798;10.968;2022-12-17T09:45:29;20.02;;;11.02;;
49972;SDS011;65693;49.798;10.968;2022-12-17T09:48:18;19.38;;;11.85;;
49972;SDS011;65693;49.798;10.968;2022-12-17T09:51:12;17.90;;;11.32;;
49972;SDS011;65693;49.798;10.968;2022-12-17T09:54:04;16.98;;;11.13;;
49972;SDS011;65693;49.798;10.968;2022-12-17T09:56:54;19.30;;;12.13;;
49972;SDS011;65693;49.798;10.968;2022-12-17T09:59:39;18.30;;;11.05;;
49972;SDS011;65693;49.798;10.968;2022-12-17T10:02:24;20.30;;;11.93;;
49972;SDS011;65693;49.798;10.968;2022-12-17T10:05:08;17.30;;;11.23;;
49972;SDS011;65693;49.798;10.968;2022-12-17T10:07:57;17.42;;;11.43;;
49972;SDS011;65693;49.798;10.968;2022-12-17T10:10:44;19.33;;;11.38;;
49972;SDS011;65693;49.798;10.968;2022-12-17T10:13:28;19.38;;;11.43;;
49972;SDS011;65693;49.798;10.968;2022-12-17T10:16:19;19.63;;;11.80;;
49972;SDS011;65693;49.798;10.968;2022-12-17T10:19:10;17.85;;;11.18;;
49972;SDS011;65693;49.798;10.968;2022-12-17T10:22:10;17.92;;;11.27;;
49972;SDS011;65693;49.798;10.968;2022-12-17T10:24:55;17.02;;;11.02;;
49972;SDS011;65693;49.798;10.968;2022-12-17T10:27:41;18.20;;;11.30;;
49972;SDS011;65693;49.798;10.968;2022-12-17T10:30:25;19.00;;;11.23;;
49972;SDS011;65693;49.798;10.968;2022-12-17T10:33:12;17.77;;;11.65;;
49972;SDS011;65693;49.798;10.968;2022-12-17T10:35:59;16.83;;;10.93;;
49972;SDS011;65693;49.798;10.968;2022-12-17T10:38:44;18.45;;;11.45;;
49972;SDS011;65693;49.798;10.968;2022-12-17T10:41:39;18.35;;;11.50;;
49972;SDS011;65693;49.798;10.968;2022-12-17T10:44:26;17.73;;;11.73;;
49972;SDS011;65693;49.798;10.968;2022-12-17T10:47:11;20.42;;;11.30;;
49972;SDS011;65693;49.798;10.968;2022-12-17T10:50:09;19.55;;;11.65;;
49972;SDS011;65693;49.798;10.968;2022-12-17T10:53:14;19.15;;;11.45;;
49972;SDS011;65693;49.798;10.968;2022-12-17T10:56:18;18.83;;;11.73;;
49972;SDS011;65693;49.798;10.968;2022-12-17T10:59:09;20.00;;;10.88;;
49972;SDS011;65693;49.798;10.968;2022-12-17T11:01:58;18.83;;;10.93;;
49972;SDS011;65693;49.798;10.968;2022-12-17T11:04:49;18.13;;;11.27;;
49972;SDS011;65693;49.798;10.968;2022-12-17T11:07:35;19.05;;;10.55;;
49972;SDS011;65693;49.798;10.968;2022-12-17T11:10:19;19.55;;;10.65;;
49972;SDS011;65693;49.798;10.968;2022-12-17T11:13:07;16.02;;;10.98;;
49972;SDS011;65693;49.798;10.968;2022-12-17T11:15:55;16.20;;;10.50;;
49972;SDS011;65693;49.798;10.968;2022-12-17T11:18:43;17.88;;;10.43;;
49972;SDS011;65693;49.798;10.968;2022-12-17T11:21:34;18.50;;;11.23;;
49972;SDS011;65693;49.798;10.968;2022-12-17T11:24:23;15.65;;;10.00;;
49972;SDS011;65693;49.798;10.968;2022-12-17T11:27:11;16.90;;;10.57;;
49972;SDS011;65693;49.798;10.968;2022-12-17T11:30:00;17.63;;;10.52;;
49972;SDS011;65693;49.798;10.968;2022-12-17T11:32:47;15.90;;;10.50;;
49972;SDS011;65693;49.798;10.968;2022-12-17T11:35:42;19.30;;;10.32;;
49972;SDS011;65693;49.798;10.968;2022-12-17T11:38:33;18.60;;;11.27;;
49972;SDS011;65693;49.798;10.968;2022-12-17T11:41:24;17.27;;;10.77;;
49972;SDS011;65693;49.798;10.968;2022-12-17T11:44:20;18.42;;;10.45;;
49972;SDS011;65693;49.798;10.968;2022-12-17T11:47:17;17.60;;;10.52;;
49972;SDS011;65693;49.798;10.968;2022-12-17T11:50:15;16.98;;;10.38;;
49972;SDS011;65693;49.798;10.968;2022-12-17T11:53:09;17.17;;;11.07;;
49972;SDS011;65693;49.798;10.968;2022-12-17T11:56:08;15.75;;;10.10;;
49972;SDS011;65693;49.798;10.968;2022-12-17T11:58:58;18.48;;;9.90;;
49972;SDS011;65693;49.798;10.968;2022-12-17T12:01:52;18.45;;;10.35;;
49972;SDS011;65693;49.798;10.968;2022-12-17T12:04:55;16.77;;;10.48;;
49972;SDS011;65693;49.798;10.968;2022-12-17T12:07:50;16.85;;;10.60;;
49972;SDS011;65693;49.798;10.968;2022-12-17T12:10:44;18.27;;;10.75;;
49972;SDS011;65693;49.798;10.968;2022-12-17T12:13:37;16.77;;;10.27;;
49972;SDS011;65693;49.798;10.968;2022-12-17T12:16:32;17.58;;;10.45;;
49972;SDS011;65693;49.798;10.968;2022-12-17T12:19:25;16.98;;;10.52;;
49972;SDS011;65693;49.798;10.968;2022-12-17T12:22:29;16.73;;;10.00;;
49972;SDS011;65693;49.798;10.968;2022-12-17T12:25:21;18.05;;;10.90;;
49972;SDS011;65693;49.798;10.968;2022-12-17T12:28:17;18.38;;;10.48;;
49972;SDS011;65693;49.798;10.968;2022-12-17T12:31:12;17.05;;;10.23;;
49972;SDS011;65693;49.798;10.968;2022-12-17T12:34:07;17.23;;;10.32;;
49972;SDS011;65693;49.798;10.968;2022-12-17T12:36:55;14.77;;;9.35;;
49972;SDS011;65693;49.798;10.968;2022-12-17T12:39:45;16.95;;;10.73;;
49972;SDS011;65693;49.798;10.968;2022-12-17T12:42:35;17.10;;;10.65;;
49972;SDS011;65693;49.798;10.968;2022-12-17T12:45:30;17.27;;;10.20;;
49972;SDS011;65693;49.798;10.968;2022-12-17T12:48:24;15.57;;;9.38;;
49972;SDS011;65693;49.798;10.968;2022-12-17T12:51:32;16.75;;;10.65;;
49972;SDS011;65693;49.798;10.968;2022-12-17T12:54:22;16.35;;;9.57;;
49972;SDS011;65693;49.798;10.968;2022-12-17T13:03:48;16.13;;;9.63;;
49972;SDS011;65693;49.798;10.968;2022-12-17T13:06:45;15.70;;;9.43;;
49972;SDS011;65693;49.798;10.968;2022-12-17T13:09:18;14.48;;;9.32;;
49972;SDS011;65693;49.798;10.968;2022-12-17T13:11:47;15.32;;;9.52;;
49972;SDS011;65693;49.798;10.968;2022-12-17T13:14:17;16.33;;;9.70;;
49972;SDS011;65693;49.798;10.968;2022-12-17T13:16:50;14.07;;;9.48;;
49972;SDS011;65693;49.798;10.968;2022-12-17T13:19:30;15.30;;;9.25;;
49972;SDS011;65693;49.798;10.968;2022-12-17T13:22:09;15.43;;;9.40;;
49972;SDS011;65693;49.798;10.968;2022-12-17T13:24:36;16.38;;;10.10;;
49972;SDS011;65693;49.798;10.968;2022-12-17T13:27:03;17.15;;;10.38;;
49972;SDS011;65693;49.798;10.968;2022-12-17T13:29:30;15.02;;;10.27;;
49972;SDS011;65693;49.798;10.968;2022-12-17T13:32:04;17.15;;;10.10;;
49972;SDS011;65693;49.798;10.968;2022-12-17T13:34:38;16.27;;;9.48;;
49972;SDS011;65693;49.798;10.968;2022-12-17T13:37:18;15.75;;;9.43;;
49972;SDS011;65693;49.798;10.968;2022-12-17T13:39:54;15.20;;;10.32;;
49972;SDS011;65693;49.798;10.968;2022-12-17T13:42:26;16.23;;;9.68;;
49972;SDS011;65693;49.798;10.968;2022-12-17T13:44:55;15.82;;;9.27;;
49972;SDS011;65693;49.798;10.968;2022-12-17T13:47:24;16.20;;;10.38;;
49972;SDS011;65693;49.798;10.968;2022-12-17T13:49:53;21.85;;;13.35;;
49972;SDS011;65693;49.798;10.968;2022-12-17T13:52:22;20.20;;;12.38;;
49972;SDS011;65693;49.798;10.968;2022-12-17T13:54:50;21.48;;;12.13;;
49972;SDS011;65693;49.798;10.968;2022-12-17T13:57:18;20.02;;;11.93;;
49972;SDS011;65693;49.798;10.968;2022-12-17T13:59:49;19.10;;;11.73;;
49972;SDS011;65693;49.798;10.968;2022-12-17T14:02:25;19.38;;;11.93;;
49972;SDS011;65693;49.798;10.968;2022-12-17T14:04:54;20.60;;;12.23;;
49972;SDS011;65693;49.798;10.968;2022-12-17T14:07:22;24.70;;;11.80;;
49972;SDS011;65693;49.798;10.968;2022-12-17T14:09:49;19.27;;;11.25;;
49972;SDS011;65693;49.798;10.968;2022-12-17T14:12:17;19.60;;;11.90;;
49972;SDS011;65693;49.798;10.968;2022-12-17T14:14:50;20.42;;;11.73;;
49972;SDS011;65693;49.798;10.968;2022-12-17T14:17:21;17.85;;;11.60;;
49972;SDS011;65693;49.798;10.968;2022-12-17T14:19:51;19.17;;;11.40;;
49972;SDS011;65693;49.798;10.968;2022-12-17T14:22:23;18.15;;;12.45;;
49972;SDS011;65693;49.798;10.968;2022-12-17T14:24:55;21.45;;;11.65;;
49972;SDS011;65693;49.798;10.968;2022-12-17T14:27:23;17.90;;;10.95;;
49972;SDS011;65693;49.798;10.968;2022-12-17T14:29:51;18.45;;;10.63;;
49972;SDS011;65693;49.798;10.968;2022-12-17T14:32:22;19.42;;;11.35;;
49972;SDS011;65693;49.798;10.968;2022-12-17T14:34:51;23.67;;;11.75;;
49972;SDS011;65693;49.798;10.968;2022-12-17T14:37:18;17.67;;;11.75;;
49972;SDS011;65693;49.798;10.968;2022-12-17T14:39:48;18.40;;;11.25;;
49972;SDS011;65693;49.798;10.968;2022-12-17T14:42:16;17.50;;;10.32;;
49972;SDS011;65693;49.798;10.968;2022-12-17T14:44:51;19.40;;;11.07;;
49972;SDS011;65693;49.798;10.968;2022-12-17T14:47:19;17.40;;;10.60;;
49972;SDS011;65693;49.798;10.968;2022-12-17T14:49:59;19.10;;;11.18;;
49972;SDS011;65693;49.798;10.968;2022-12-17T14:52:32;19.10;;;11.45;;
49972;SDS011;65693;49.798;10.968;2022-12-17T14:55:00;17.67;;;10.82;;
49972;SDS011;65693;49.798;10.968;2022-12-17T14:57:27;16.48;;;10.68;;
49972;SDS011;65693;49.798;10.968;2022-12-17T14:59:54;19.58;;;11.60;;
49972;SDS011;65693;49.798;10.968;2022-12-17T15:02:21;17.60;;;10.45;;
49972;SDS011;65693;49.798;10.968;2022-12-17T15:04:50;18.73;;;10.88;;
49972;SDS011;65693;49.798;10.968;2022-12-17T15:07:21;18.90;;;10.80;;
49972;SDS011;65693;49.798;10.968;2022-12-17T15:09:50;16.23;;;10.23;;
49972;SDS011;65693;49.798;10.968;2022-12-17T15:12:17;18.17;;;11.05;;
49972;SDS011;65693;49.798;10.968;2022-12-17T15:14:44;17.73;;;10.70;;
49972;SDS011;65693;49.798;10.968;2022-12-17T15:17:11;16.42;;;9.93;;
49972;SDS011;65693;49.798;10.968;2022-12-17T15:19:38;19.40;;;11.15;;
49972;SDS011;65693;49.798;10.968;2022-12-17T15:22:04;17.30;;;10.77;;
49972;SDS011;65693;49.798;10.968;2022-12-17T15:24:33;17.83;;;10.13;;
49972;SDS011;65693;49.798;10.968;2022-12-17T15:26:59;17.30;;;10.32;;
49972;SDS011;65693;49.798;10.968;2022-12-17T15:29:25;16.55;;;10.52;;
49972;SDS011;65693;49.798;10.968;2022-12-17T15:31:52;16.50;;;10.10;;
49972;SDS011;65693;49.798;10.968;2022-12-17T15:34:19;14.88;;;9.40;;
49972;SDS011;65693;49.798;10.968;2022-12-17T15:36:45;20.08;;;12.32;;
49972;SDS011;65693;49.798;10.968;2022-12-17T15:39:12;22.88;;;11.88;;
49972;SDS011;65693;49.798;10.968;2022-12-17T15:41:40;20.08;;;11.27;;
49972;SDS011;65693;49.798;10.968;2022-12-17T15:44:23;19.55;;;11.45;;
49972;SDS011;65693;49.798;10.968;2022-12-17T15:46:50;18.27;;;10.90;;
49972;SDS011;65693;49.798;10.968;2022-12-17T15:49:16;18.35;;;10.73;;
49972;SDS011;65693;49.798;10.968;2022-12-17T15:51:43;20.10;;;11.50;;